createdAt,value
2022-08-22T00:02:11.306Z,81.05
2022-08-22T00:02:48.678Z,89.21
2022-08-22T00:05:43.849Z,84.74
2022-08-22T00:09:07.773Z,87.14
2022-08-22T00:12:35.920Z,87.79
2022-08-22T00:16:01.378Z,89.48
2022-08-22T00:19:32.531Z,89.02
2022-08-22T00:22:41.407Z,88.63
2022-08-22T00:26:04.507Z,89.24
2022-08-22T00:29:18.954Z,89.18
2022-08-22T00:32:46.692Z,89.34
2022-08-22T00:36:08.957Z,91.00
2022-08-22T00:39:27.160Z,90.20
2022-08-22T00:42:48.563Z,90.45
2022-08-22T00:46:21.620Z,90.39
2022-08-22T00:49:36.695Z,90.30
2022-08-22T00:52:51.667Z,90.53
2022-08-22T00:56:05.533Z,91.30
2022-08-22T00:59:47.600Z,90.96
2022-08-22T01:03:20.160Z,91.59
2022-08-22T01:06:41.964Z,91.12
2022-08-22T01:10:09.208Z,91.45
2022-08-22T01:13:23.758Z,91.80
2022-08-22T01:17:01.741Z,91.95
2022-08-22T01:20:40.125Z,92.00
2022-08-22T01:24:01.902Z,92.26
2022-08-22T01:27:24.527Z,91.96
2022-08-22T01:31:07.531Z,91.95
2022-08-22T01:34:24.257Z,92.60
2022-08-22T01:37:34.748Z,93.12
2022-08-22T01:41:17.991Z,92.25
2022-08-22T01:44:36.776Z,92.58
2022-08-22T01:48:05.529Z,92.44
2022-08-22T01:51:53.156Z,93.20
2022-08-22T01:55:10.588Z,93.79
2022-08-22T01:58:21.210Z,93.77
2022-08-22T02:01:37.672Z,94.86
2022-08-22T02:05:11.619Z,94.85
2022-08-22T02:08:16.148Z,95.74
2022-08-22T02:11:52.070Z,96.20
2022-08-22T02:15:32.122Z,96.67
2022-08-22T02:19:05.026Z,96.90
2022-08-22T02:22:36.591Z,95.67
2022-08-22T02:25:53.880Z,95.37
2022-08-22T02:29:17.784Z,95.31
2022-08-22T02:32:44.428Z,96.18
2022-08-22T02:35:57.671Z,96.40
2022-08-22T02:39:14.565Z,95.93
2022-08-22T02:42:28.369Z,96.14
2022-08-22T02:46:00.548Z,96.69
2022-08-22T02:49:22.519Z,97.21
2022-08-22T02:52:52.231Z,96.98
2022-08-22T02:56:23.342Z,97.55
2022-08-22T02:59:59.709Z,97.93
2022-08-22T03:03:22.167Z,97.57
2022-08-22T03:06:45.129Z,96.65
2022-08-22T03:10:11.122Z,98.85
2022-08-22T03:13:27.135Z,98.13
2022-08-22T03:16:47.264Z,99.29
2022-08-22T03:20:16.444Z,97.08
2022-08-22T03:23:32.576Z,97.11
2022-08-22T03:26:48.063Z,96.54
2022-08-22T03:29:58.143Z,96.88
2022-08-22T03:33:17.098Z,97.63
2022-08-22T03:36:29.843Z,97.14
2022-08-22T03:40:01.267Z,97.15
2022-08-22T03:43:22.915Z,96.74
2022-08-22T03:46:35.159Z,96.62
2022-08-22T03:50:06.874Z,96.38
2022-08-22T03:53:59.324Z,96.39
2022-08-22T03:57:24.738Z,98.56
2022-08-22T04:01:01.096Z,95.69
2022-08-22T04:04:34.531Z,95.53
2022-08-22T04:07:47.617Z,97.33
2022-08-22T04:11:08.547Z,98.70
2022-08-22T04:14:40.712Z,98.33
2022-08-22T04:17:58.375Z,100.00
2022-08-22T04:21:21.771Z,98.33
2022-08-22T04:24:52.459Z,99.88
2022-08-22T04:28:10.295Z,99.51
2022-08-22T04:31:19.937Z,98.96
2022-08-22T04:34:43.115Z,97.89
2022-08-22T04:38:17.912Z,98.06
2022-08-22T04:41:27.286Z,98.36
2022-08-22T04:45:09.574Z,96.90
2022-08-22T04:48:33.037Z,96.70
2022-08-22T04:51:48.544Z,96.71
2022-08-22T04:54:56.262Z,97.00
2022-08-22T04:58:34.106Z,98.18
2022-08-22T05:02:00.003Z,96.31
2022-08-22T05:05:13.114Z,96.62
2022-08-22T05:08:26.186Z,96.53
2022-08-22T05:11:34.377Z,97.39
2022-08-22T05:14:48.508Z,97.86
2022-08-22T05:17:55.628Z,99.95
2022-08-22T05:21:03.417Z,100.00
2022-08-22T05:24:28.823Z,100.00
2022-08-22T05:27:41.214Z,100.00
2022-08-22T05:30:48.962Z,100.00
2022-08-22T05:34:00.636Z,100.00
2022-08-22T05:37:25.840Z,100.00
2022-08-22T05:40:32.765Z,100.00
2022-08-22T05:43:44.497Z,100.00
2022-08-22T05:47:02.076Z,100.00
2022-08-22T05:50:26.571Z,100.00
2022-08-22T05:53:33.781Z,100.00
2022-08-22T05:56:48.089Z,100.00
2022-08-22T06:00:04.831Z,100.00
2022-08-22T06:03:35.171Z,100.00
2022-08-22T06:06:59.839Z,100.00
2022-08-22T06:10:09.304Z,100.00
2022-08-22T06:13:24.444Z,100.00
2022-08-22T06:16:48.726Z,100.00
2022-08-22T06:19:55.842Z,100.00
2022-08-22T06:23:03.408Z,100.00
2022-08-22T06:26:20.668Z,100.00
2022-08-22T06:29:35.686Z,100.00
2022-08-22T06:32:59.977Z,100.00
2022-08-22T06:36:32.606Z,100.00
2022-08-22T06:39:45.092Z,100.00
2022-08-22T06:42:53.127Z,100.00
2022-08-22T06:45:58.481Z,100.00
2022-08-22T06:49:05.765Z,100.00
2022-08-22T06:52:22.172Z,100.00
2022-08-22T06:55:29.730Z,100.00
2022-08-22T06:58:47.131Z,100.00
2022-08-22T07:02:30.928Z,100.00
2022-08-22T07:05:41.804Z,100.00
2022-08-22T07:08:46.976Z,100.00
2022-08-22T07:11:53.809Z,100.00
2022-08-22T07:15:19.872Z,100.00
2022-08-22T07:18:26.875Z,100.00
2022-08-22T07:21:43.669Z,100.00
2022-08-22T07:24:55.083Z,100.00
2022-08-22T07:28:36.668Z,100.00
2022-08-22T07:31:57.747Z,100.00
2022-08-22T07:35:28.224Z,100.00
2022-08-22T07:38:36.084Z,100.00
2022-08-22T07:41:53.885Z,100.00
2022-08-22T07:44:58.547Z,100.00
2022-08-22T07:48:25.477Z,100.00
2022-08-22T07:51:38.448Z,100.00
2022-08-22T07:54:52.203Z,100.00
2022-08-22T07:58:05.065Z,100.00
2022-08-22T08:01:13.752Z,100.00
2022-08-22T08:04:25.541Z,100.00
2022-08-22T08:07:31.185Z,100.00
2022-08-22T08:10:43.061Z,100.00
2022-08-22T08:13:53.395Z,100.00
2022-08-22T08:17:06.943Z,100.00
2022-08-22T08:20:16.492Z,100.00
2022-08-22T08:23:23.668Z,100.00
2022-08-22T08:27:07.356Z,100.00
2022-08-22T08:30:23.239Z,100.00
2022-08-22T08:33:30.281Z,100.00
2022-08-22T08:36:40.190Z,100.00
2022-08-22T08:39:56.370Z,100.00
2022-08-22T08:43:29.186Z,100.00
2022-08-22T08:46:40.018Z,100.00
2022-08-22T08:50:22.301Z,100.00
2022-08-22T08:53:47.464Z,100.00
2022-08-22T08:57:25.489Z,100.00
2022-08-22T09:00:45.738Z,100.00
2022-08-22T09:04:15.295Z,100.00
2022-08-22T09:07:58.067Z,100.00
2022-08-22T09:15:14.405Z,100.00
2022-08-22T09:18:33.004Z,100.00
2022-08-22T09:22:06.469Z,100.00
2022-08-22T09:25:23.552Z,100.00
2022-08-22T09:28:55.947Z,100.00
2022-08-22T09:32:29.415Z,100.00
2022-08-22T09:35:57.906Z,100.00
2022-08-22T09:39:08.847Z,100.00
2022-08-22T09:42:25.539Z,100.00
2022-08-22T09:45:39.135Z,100.00
2022-08-22T09:49:21.812Z,100.00
2022-08-22T09:52:51.053Z,100.00
2022-08-22T09:56:11.577Z,100.00
2022-08-22T09:59:58.127Z,100.00
2022-08-22T10:03:55.423Z,100.00
2022-08-22T10:07:23.558Z,100.00
2022-08-22T10:11:00.912Z,100.00
2022-08-22T10:14:12.070Z,99.28
2022-08-22T10:17:34.132Z,100.00
2022-08-22T10:21:04.928Z,100.00
2022-08-22T10:24:34.218Z,99.16
2022-08-22T10:28:10.355Z,97.77
2022-08-22T10:31:58.496Z,99.14
2022-08-22T11:13:15.712Z,95.93
2022-08-22T11:16:31.316Z,95.20
2022-08-22T11:20:03.054Z,95.63
2022-08-22T11:23:51.052Z,96.27
2022-08-22T11:27:20.807Z,97.75
2022-08-22T11:30:53.578Z,95.92
2022-08-22T11:34:10.573Z,95.23
2022-08-22T11:37:42.962Z,95.54
2022-08-22T11:46:33.125Z,96.46
2022-08-22T11:49:52.072Z,97.66
2022-08-22T11:53:01.458Z,97.89
2022-08-22T11:56:37.453Z,97.20
2022-08-22T11:59:54.824Z,96.93
2022-08-22T12:03:26.486Z,96.53
2022-08-22T12:06:49.699Z,95.42
2022-08-22T12:09:56.546Z,98.03
2022-08-22T12:13:10.042Z,94.92
2022-08-22T12:16:37.986Z,95.24
2022-08-22T12:20:14.599Z,96.29
2022-08-22T12:23:54.453Z,95.69
2022-08-22T12:27:02.582Z,96.67
2022-08-22T12:30:57.049Z,99.95
2022-08-22T12:34:43.260Z,98.93
2022-08-22T12:38:28.692Z,100.00
2022-08-22T12:41:49.809Z,100.00
2022-08-22T12:44:54.909Z,100.00
2022-08-22T12:48:20.505Z,100.00
2022-08-22T12:52:15.284Z,100.00
2022-08-22T12:55:49.605Z,100.00
2022-08-22T12:59:30.678Z,100.00
2022-08-22T13:02:40.490Z,100.00
2022-08-22T13:05:56.254Z,100.00
2022-08-22T13:09:19.690Z,99.99
2022-08-22T13:12:40.020Z,100.00
2022-08-22T13:15:56.930Z,100.00
2022-08-22T13:19:08.043Z,100.00
2022-08-22T13:22:27.308Z,100.00
2022-08-22T13:26:32.016Z,100.00
2022-08-22T13:29:48.575Z,100.00
2022-08-22T13:32:57.829Z,100.00
2022-08-22T13:36:10.946Z,99.81
2022-08-22T13:39:19.686Z,100.00
2022-08-22T13:42:30.017Z,100.00
2022-08-22T13:45:38.211Z,100.00
2022-08-22T13:48:56.701Z,100.00
2022-08-22T13:52:30.030Z,100.00
2022-08-22T13:55:56.651Z,99.63
2022-08-22T13:59:08.146Z,99.25
2022-08-22T14:02:34.604Z,100.00
2022-08-22T14:05:53.108Z,100.00
2022-08-22T14:09:08.537Z,100.00
2022-08-22T14:12:19.388Z,100.00
2022-08-22T14:15:33.916Z,100.00
2022-08-22T14:18:55.612Z,100.00
2022-08-22T14:22:05.561Z,100.00
2022-08-22T14:25:34.829Z,100.00
2022-08-22T14:28:39.745Z,100.00
2022-08-22T14:31:58.238Z,100.00
2022-08-22T14:35:21.481Z,100.00
2022-08-22T14:38:33.995Z,100.00
2022-08-22T14:41:59.399Z,100.00
2022-08-22T14:45:16.778Z,100.00
2022-08-22T14:48:30.283Z,100.00
2022-08-22T14:51:37.775Z,100.00
2022-08-22T14:54:43.226Z,100.00
2022-08-22T14:58:27.886Z,100.00
2022-08-22T15:01:36.540Z,100.00
2022-08-22T15:04:51.251Z,100.00
2022-08-22T15:08:02.198Z,99.01
2022-08-22T15:11:26.101Z,100.00
2022-08-22T15:14:53.722Z,100.00
2022-08-22T15:17:58.388Z,100.00
2022-08-22T15:21:13.234Z,100.00
2022-08-22T15:24:18.371Z,100.00
2022-08-22T15:27:24.389Z,100.00
2022-08-22T15:30:46.153Z,100.00
2022-08-22T15:33:51.832Z,100.00
2022-08-22T15:37:19.559Z,99.54
2022-08-22T15:40:36.612Z,100.00
2022-08-22T15:43:50.438Z,100.00
2022-08-22T15:46:55.172Z,100.00
2022-08-22T15:50:15.263Z,100.00
2022-08-22T15:53:45.434Z,100.00
2022-08-22T15:57:11.408Z,100.00
2022-08-22T16:00:43.811Z,100.00
2022-08-22T16:03:55.545Z,100.00
2022-08-22T16:07:02.378Z,100.00
2022-08-22T16:10:22.127Z,97.80
2022-08-22T16:13:32.983Z,98.98
2022-08-22T16:16:56.548Z,98.71
2022-08-22T16:20:19.591Z,97.57
2022-08-22T16:23:25.347Z,99.29
2022-08-22T16:26:32.576Z,99.67
2022-08-22T16:29:42.958Z,97.02
2022-08-22T16:32:57.596Z,96.52
2022-08-22T16:36:37.323Z,93.50
2022-08-22T16:39:48.324Z,96.72
2022-08-22T16:43:14.632Z,92.61
2022-08-22T16:46:36.404Z,92.24
2022-08-22T16:50:01.507Z,91.99
2022-08-22T16:53:33.787Z,89.90
2022-08-22T16:56:56.436Z,90.93
2022-08-22T17:00:46.524Z,89.83
2022-08-22T17:04:05.817Z,91.12
2022-08-22T17:07:34.248Z,89.70
2022-08-22T17:10:54.124Z,91.02
2022-08-22T17:14:21.912Z,89.68
2022-08-22T17:18:16.134Z,86.50
2022-08-22T17:21:50.733Z,87.38
2022-08-22T17:25:35.169Z,86.34
2022-08-22T17:29:22.603Z,82.37
2022-08-22T17:32:57.204Z,85.97
2022-08-22T17:36:26.669Z,85.08
2022-08-22T17:40:03.501Z,84.70
2022-08-22T17:43:23.003Z,83.64
2022-08-22T17:46:42.577Z,82.92
2022-08-22T17:49:58.074Z,83.82
2022-08-22T17:53:25.914Z,83.47
2022-08-22T17:57:07.665Z,82.25
2022-08-22T18:00:21.093Z,81.47
2022-08-22T18:03:38.599Z,82.69
2022-08-22T18:06:56.263Z,82.26
2022-08-22T18:10:24.417Z,80.17
2022-08-22T18:13:37.577Z,80.07
2022-08-22T18:16:52.983Z,80.60
2022-08-22T18:20:25.196Z,79.65
2022-08-22T18:23:45.611Z,81.45
2022-08-22T18:27:41.963Z,80.00
2022-08-22T18:30:56.339Z,80.19
2022-08-22T18:34:51.483Z,79.98
2022-08-22T18:38:20.154Z,80.81
2022-08-22T18:41:48.843Z,81.13
2022-08-22T18:44:53.712Z,79.62
2022-08-22T18:47:58.734Z,80.77
2022-08-22T18:51:25.783Z,81.08
2022-08-22T18:54:55.457Z,78.16
2022-08-22T18:58:14.407Z,79.07
2022-08-22T19:01:21.996Z,77.66
2022-08-22T19:04:39.181Z,78.93
2022-08-22T19:08:25.073Z,76.84
2022-08-22T19:11:54.052Z,79.36
2022-08-22T19:15:28.649Z,78.79
2022-08-22T19:19:18.199Z,80.20
2022-08-22T19:22:30.688Z,80.42
2022-08-22T19:25:35.589Z,79.20
2022-08-22T19:28:40.353Z,79.55
2022-08-22T19:31:47.375Z,80.19
2022-08-22T19:35:21.103Z,79.79
2022-08-22T19:38:57.272Z,78.45
2022-08-22T19:42:02.601Z,79.29
2022-08-22T19:45:29.721Z,79.66
2022-08-22T19:49:04.848Z,79.49
2022-08-22T19:52:26.070Z,80.44
2022-08-22T19:55:40.626Z,80.63
2022-08-22T19:59:17.532Z,78.17
2022-08-22T20:02:36.553Z,78.97
2022-08-22T20:05:51.758Z,79.38
2022-08-22T20:09:39.165Z,80.72
2022-08-22T20:13:07.804Z,79.60
2022-08-22T20:16:44.869Z,81.01
2022-08-22T20:23:31.010Z,82.09
2022-08-22T20:26:47.469Z,82.68
2022-08-22T20:30:25.653Z,81.55
2022-08-22T20:33:39.630Z,81.84
2022-08-22T20:36:52.743Z,82.29
2022-08-22T20:40:07.554Z,83.68
2022-08-22T20:43:42.191Z,85.30
2022-08-22T20:47:02.247Z,85.81
2022-08-22T20:50:12.809Z,85.52
2022-08-22T20:53:23.646Z,85.89
2022-08-22T20:56:53.129Z,87.09
2022-08-22T21:00:07.436Z,87.48
2022-08-22T21:03:41.697Z,88.42
2022-08-22T21:06:46.218Z,86.99
2022-08-22T21:10:36.306Z,86.24
2022-08-22T21:13:41.057Z,86.01
2022-08-22T21:16:45.705Z,87.25
2022-08-22T21:19:50.430Z,87.13
2022-08-22T21:22:56.401Z,86.78
2022-08-22T21:26:08.703Z,87.52
2022-08-22T21:29:16.121Z,88.60
2022-08-22T21:32:26.634Z,88.38
2022-08-22T21:35:33.937Z,88.81
2022-08-22T21:38:39.756Z,89.68
2022-08-22T21:41:50.969Z,89.99
2022-08-22T21:45:02.129Z,90.09
2022-08-22T21:48:35.311Z,90.72
2022-08-22T21:51:47.235Z,92.89
2022-08-22T21:54:52.120Z,91.67
2022-08-22T21:58:34.141Z,92.01
2022-08-22T22:01:42.680Z,94.65
2022-08-22T22:04:50.210Z,92.81
2022-08-22T22:07:54.655Z,92.99
2022-08-22T22:11:03.091Z,93.52
2022-08-22T22:14:10.984Z,94.60
2022-08-22T22:17:15.430Z,95.32
2022-08-22T22:20:22.727Z,95.85
2022-08-22T22:23:27.678Z,94.69
2022-08-22T22:26:33.178Z,95.09
2022-08-22T22:29:37.925Z,93.41
2022-08-22T22:32:42.985Z,93.95
2022-08-22T22:35:53.476Z,95.38
2022-08-22T22:38:58.440Z,95.82
2022-08-22T22:42:04.032Z,96.39
2022-08-22T22:45:08.955Z,99.28
2022-08-22T22:48:24.329Z,99.15
2022-08-22T22:51:29.192Z,100.00
2022-08-22T22:54:34.227Z,98.32
2022-08-22T22:57:41.402Z,100.00
2022-08-22T23:00:47.570Z,100.00
2022-08-22T23:03:58.149Z,99.31
2022-08-22T23:07:03.538Z,100.00
2022-08-22T23:10:10.683Z,99.95
2022-08-22T23:13:15.664Z,100.00
2022-08-22T23:16:22.900Z,100.00
2022-08-22T23:19:29.944Z,100.00
2022-08-22T23:22:35.125Z,100.00
2022-08-22T23:25:39.917Z,100.00
2022-08-22T23:28:45.123Z,100.00
2022-08-22T23:31:55.844Z,100.00
2022-08-22T23:35:00.683Z,100.00
2022-08-22T23:38:07.416Z,100.00
2022-08-22T23:41:13.590Z,100.00
2022-08-22T23:44:21.232Z,99.93
2022-08-22T23:47:26.042Z,99.99
2022-08-22T23:50:30.645Z,100.00
2022-08-22T23:53:35.349Z,100.00
2022-08-22T23:56:51.656Z,100.00
2022-08-22T23:59:57.732Z,100.00
